createdAt,value
2022-12-15T00:02:21.481Z,83.67
2022-12-15T00:05:07.514Z,83.53
2022-12-15T00:07:53.173Z,80.43
2022-12-15T00:10:38.803Z,82.20
2022-12-15T00:13:31.349Z,85.10
2022-12-15T00:16:17.132Z,77.47
2022-12-15T00:19:02.368Z,87.60
2022-12-15T00:21:48.317Z,82.80
2022-12-15T00:24:33.611Z,74.60
2022-12-15T00:27:19.272Z,79.33
2022-12-15T00:30:04.925Z,76.83
2022-12-15T00:32:50.201Z,78.30
2022-12-15T00:35:35.413Z,70.80
2022-12-15T00:38:31.008Z,71.37
2022-12-15T00:40:59.856Z,71.97
2022-12-15T00:43:27.821Z,73.70
2022-12-15T00:46:13.858Z,77.53
2022-12-15T00:48:41.018Z,83.23
2022-12-15T00:51:07.915Z,71.53
2022-12-15T00:53:53.036Z,75.73
2022-12-15T00:56:38.385Z,77.77
2022-12-15T00:59:23.779Z,73.30
2022-12-15T01:02:09.461Z,74.00
2022-12-15T01:04:55.250Z,75.57
2022-12-15T01:07:40.441Z,79.83
2022-12-15T01:10:26.034Z,78.80
2022-12-15T01:13:11.412Z,79.60
2022-12-15T01:15:57.138Z,79.10
2022-12-15T01:18:42.963Z,74.33
2022-12-15T01:21:10.819Z,82.83
2022-12-15T01:23:38.254Z,79.97
2022-12-15T01:26:05.993Z,73.60
2022-12-15T01:28:33.013Z,79.97
2022-12-15T01:30:59.817Z,81.40
2022-12-15T01:33:26.613Z,75.60
2022-12-15T01:36:00.098Z,78.90
2022-12-15T01:38:27.328Z,87.03
2022-12-15T01:40:55.575Z,82.53
2022-12-15T01:43:24.838Z,84.13
2022-12-15T01:45:54.563Z,93.33
2022-12-15T01:48:26.881Z,82.17
2022-12-15T01:50:57.537Z,92.23
2022-12-15T01:53:24.399Z,82.47
2022-12-15T01:55:51.710Z,84.63
2022-12-15T01:58:20.602Z,85.27
2022-12-15T02:00:47.544Z,85.73
2022-12-15T02:03:14.832Z,76.90
2022-12-15T02:05:42.550Z,83.07
2022-12-15T02:08:09.805Z,84.03
2022-12-15T02:10:50.635Z,80.87
2022-12-15T02:13:26.751Z,86.50
2022-12-15T02:16:00.455Z,85.00
2022-12-15T02:18:30.359Z,84.60
2022-12-15T02:21:15.964Z,92.20
2022-12-15T02:24:06.816Z,85.03
2022-12-15T02:26:51.325Z,80.13
2022-12-15T02:29:26.039Z,85.03
2022-12-15T02:31:55.629Z,95.77
2022-12-15T02:34:29.188Z,91.10
2022-12-15T02:36:59.858Z,91.80
2022-12-15T02:39:26.808Z,88.20
2022-12-15T02:41:53.738Z,89.30
2022-12-15T02:44:25.079Z,88.43
2022-12-15T02:46:59.723Z,91.53
2022-12-15T02:49:26.513Z,88.33
2022-12-15T02:51:53.285Z,86.60
2022-12-15T02:54:20.198Z,88.13
2022-12-15T02:56:53.224Z,87.87
2022-12-15T02:59:24.679Z,92.77
2022-12-15T03:01:51.780Z,81.70
2022-12-15T03:04:19.495Z,95.53
2022-12-15T03:06:58.950Z,92.30
2022-12-15T03:09:27.646Z,102.13
2022-12-15T03:11:54.387Z,93.97
2022-12-15T03:14:21.301Z,88.90
2022-12-15T03:16:48.402Z,99.10
2022-12-15T03:19:15.212Z,88.03
2022-12-15T03:21:42.056Z,90.43
2022-12-15T03:24:09.287Z,94.60
2022-12-15T03:26:36.322Z,93.97
2022-12-15T03:29:03.223Z,90.07
2022-12-15T03:31:30.146Z,94.37
2022-12-15T03:33:57.618Z,89.93
2022-12-15T03:36:24.363Z,84.30
2022-12-15T03:38:51.241Z,95.30
2022-12-15T03:41:20.942Z,95.80
2022-12-15T03:43:49.694Z,96.30
2022-12-15T03:46:17.299Z,94.83
2022-12-15T03:48:44.127Z,104.97
2022-12-15T03:51:10.962Z,90.73
2022-12-15T03:53:37.820Z,94.50
2022-12-15T03:56:04.678Z,90.80
2022-12-15T03:58:31.507Z,99.10
2022-12-15T04:00:58.458Z,94.23
2022-12-15T04:03:25.307Z,92.23
2022-12-15T04:05:52.249Z,95.60
2022-12-15T04:08:19.009Z,95.50
2022-12-15T04:10:45.829Z,93.33
2022-12-15T04:13:12.706Z,93.23
2022-12-15T04:15:40.029Z,101.17
2022-12-15T04:18:10.015Z,88.63
2022-12-15T04:20:38.302Z,105.93
2022-12-15T04:23:07.965Z,99.20
2022-12-15T04:25:54.116Z,94.10
2022-12-15T04:28:39.292Z,93.07
2022-12-15T04:31:36.019Z,95.63
2022-12-15T04:34:23.778Z,93.63
2022-12-15T04:37:11.426Z,95.13
2022-12-15T04:39:58.909Z,88.83
2022-12-15T04:42:44.415Z,95.67
2022-12-15T04:45:30.862Z,98.47
2022-12-15T04:48:16.406Z,92.50
2022-12-15T04:51:01.625Z,93.83
2022-12-15T04:53:47.322Z,98.57
2022-12-15T04:56:33.643Z,86.77
2022-12-15T04:59:19.451Z,93.73
2022-12-15T05:02:05.267Z,87.70
2022-12-15T05:04:50.628Z,85.20
2022-12-15T05:07:36.204Z,91.07
2022-12-15T05:10:22.149Z,90.37
2022-12-15T05:13:07.889Z,93.03
2022-12-15T05:15:53.677Z,89.37
2022-12-15T05:18:39.183Z,92.13
2022-12-15T05:21:25.267Z,99.70
2022-12-15T05:24:10.349Z,86.07
2022-12-15T05:26:56.008Z,81.27
2022-12-15T05:29:41.105Z,83.63
2022-12-15T05:32:08.498Z,77.93
2022-12-15T05:34:35.896Z,88.13
2022-12-15T05:37:04.067Z,84.40
2022-12-15T05:39:30.905Z,81.60
2022-12-15T05:41:57.878Z,79.00
2022-12-15T05:44:25.365Z,79.87
2022-12-15T05:46:52.492Z,86.17
2022-12-15T05:49:19.723Z,86.37
2022-12-15T05:51:47.382Z,82.97
2022-12-15T05:54:15.639Z,75.27
2022-12-15T05:56:42.474Z,73.50
2022-12-15T05:59:09.561Z,69.23
2022-12-15T06:01:37.034Z,69.70
2022-12-15T06:04:04.265Z,71.33
2022-12-15T06:06:31.060Z,75.17
2022-12-15T06:08:58.392Z,68.47
2022-12-15T06:11:25.204Z,74.60
2022-12-15T06:13:53.488Z,71.40
2022-12-15T06:16:20.903Z,63.03
2022-12-15T06:18:50.663Z,63.87
2022-12-15T06:21:23.478Z,62.50
2022-12-15T06:23:50.510Z,69.70
2022-12-15T06:26:25.619Z,68.77
2022-12-15T06:28:52.873Z,62.73
2022-12-15T06:31:22.990Z,66.47
2022-12-15T06:33:52.545Z,76.43
2022-12-15T06:36:26.512Z,77.23
2022-12-15T06:38:53.335Z,76.03
2022-12-15T06:41:21.289Z,78.83
2022-12-15T06:43:51.996Z,74.10
2022-12-15T06:46:19.250Z,61.73
2022-12-15T06:48:46.405Z,67.20
2022-12-15T06:51:17.173Z,65.87
2022-12-15T06:53:52.779Z,73.17
2022-12-15T06:56:32.188Z,69.93
2022-12-15T06:59:00.520Z,64.80
2022-12-15T07:01:27.491Z,63.37
2022-12-15T07:03:55.350Z,63.07
2022-12-15T07:06:22.328Z,62.93
2022-12-15T07:08:52.508Z,58.10
2022-12-15T07:11:21.130Z,79.47
2022-12-15T07:13:54.460Z,78.30
2022-12-15T07:16:22.315Z,68.27
2022-12-15T07:18:49.756Z,97.47
2022-12-15T07:21:17.222Z,118.50
2022-12-15T07:24:00.769Z,97.53
2022-12-15T07:26:28.271Z,95.47
2022-12-15T07:28:55.049Z,89.33
2022-12-15T07:31:22.539Z,93.03
2022-12-15T07:33:49.659Z,80.27
2022-12-15T07:36:16.644Z,98.23
2022-12-15T07:38:50.760Z,67.37
2022-12-15T07:41:18.798Z,69.43
2022-12-15T07:43:46.810Z,69.80
2022-12-15T07:46:14.097Z,77.47
2022-12-15T07:48:40.914Z,82.07
2022-12-15T07:51:13.843Z,107.57
2022-12-15T07:53:44.133Z,105.97
2022-12-15T07:56:10.951Z,105.63
2022-12-15T07:58:38.421Z,103.20
2022-12-15T08:01:06.622Z,95.10
2022-12-15T08:03:34.621Z,96.93
2022-12-15T08:06:10.254Z,82.07
2022-12-15T08:08:38.478Z,74.77
2022-12-15T08:11:09.316Z,69.87
2022-12-15T08:16:23.820Z,64.33
2022-12-15T08:18:50.660Z,56.93
2022-12-15T08:21:17.744Z,61.17
2022-12-15T08:23:44.582Z,60.63
2022-12-15T08:26:13.393Z,68.63
2022-12-15T08:28:41.284Z,72.53
2022-12-15T08:31:09.575Z,74.53
2022-12-15T08:33:36.897Z,66.03
2022-12-15T08:36:07.948Z,63.77
2022-12-15T08:38:35.328Z,56.03
2022-12-15T08:41:16.234Z,57.87
2022-12-15T08:43:48.580Z,58.00
2022-12-15T08:46:20.380Z,60.90
2022-12-15T08:48:47.652Z,63.20
2022-12-15T08:51:14.946Z,58.00
2022-12-15T08:53:42.043Z,60.30
2022-12-15T08:56:10.176Z,58.43
2022-12-15T08:58:37.053Z,65.87
2022-12-15T09:01:08.283Z,63.87
2022-12-15T09:03:36.167Z,69.80
2022-12-15T09:06:04.104Z,79.83
2022-12-15T09:08:31.296Z,75.07
2022-12-15T09:10:59.352Z,76.03
2022-12-15T09:13:26.522Z,123.23
2022-12-15T09:16:09.321Z,82.37
2022-12-15T09:18:37.416Z,73.97
2022-12-15T09:21:05.126Z,61.27
2022-12-15T09:23:32.407Z,59.47
2022-12-15T09:26:06.746Z,63.37
2022-12-15T09:28:33.884Z,56.53
2022-12-15T09:31:28.518Z,59.87
2022-12-15T09:33:57.611Z,57.33
2022-12-15T09:36:24.964Z,62.53
2022-12-15T09:38:51.759Z,62.53
2022-12-15T09:41:22.106Z,68.50
2022-12-15T09:43:56.411Z,66.43
2022-12-15T09:46:27.115Z,61.10
2022-12-15T09:48:54.409Z,60.20
2022-12-15T09:51:24.300Z,48.30
2022-12-15T09:53:56.130Z,50.03
2022-12-15T09:56:32.853Z,54.50
2022-12-15T09:58:59.691Z,50.67
2022-12-15T10:01:39.193Z,49.90
2022-12-15T10:04:21.291Z,53.57
2022-12-15T10:07:03.834Z,56.13
2022-12-15T10:09:31.050Z,61.77
2022-12-15T10:12:00.490Z,46.30
2022-12-15T10:14:27.357Z,43.17
2022-12-15T10:17:06.629Z,60.53
2022-12-15T10:19:42.857Z,55.50
2022-12-15T10:22:27.100Z,52.57
2022-12-15T10:25:12.474Z,49.60
2022-12-15T10:27:58.337Z,46.27
2022-12-15T10:30:25.476Z,48.03
2022-12-15T10:33:01.297Z,48.57
2022-12-15T10:35:32.550Z,54.30
2022-12-15T10:38:01.484Z,51.07
2022-12-15T10:43:36.808Z,54.50
2022-12-15T10:46:04.125Z,53.53
2022-12-15T10:48:31.472Z,50.23
2022-12-15T10:51:14.124Z,55.33
2022-12-15T10:53:53.185Z,52.93
2022-12-15T10:56:25.908Z,49.53
2022-12-15T10:58:57.736Z,47.37
2022-12-15T11:01:25.976Z,48.70
2022-12-15T11:03:54.409Z,46.97
2022-12-15T11:06:21.899Z,52.23
2022-12-15T11:08:50.099Z,44.67
2022-12-15T11:11:46.379Z,48.93
2022-12-15T11:14:16.157Z,51.30
2022-12-15T11:16:48.976Z,56.00
2022-12-15T11:19:24.803Z,52.63
2022-12-15T11:21:56.553Z,55.17
2022-12-15T11:24:33.196Z,48.83
2022-12-15T11:27:23.507Z,48.30
2022-12-15T11:30:03.104Z,52.70
2022-12-15T11:32:32.118Z,52.90
2022-12-15T11:34:59.244Z,48.70
2022-12-15T11:37:36.921Z,54.23
2022-12-15T11:40:22.218Z,47.07
2022-12-15T11:43:21.396Z,45.83
2022-12-15T11:46:00.095Z,47.80
2022-12-15T11:48:43.329Z,52.13
2022-12-15T11:51:22.297Z,48.37
2022-12-15T11:54:08.205Z,49.97
2022-12-15T11:56:37.322Z,42.97
2022-12-15T11:59:04.177Z,48.33
2022-12-15T12:01:36.988Z,38.17
2022-12-15T12:04:24.801Z,42.40
2022-12-15T12:07:00.228Z,46.80
2022-12-15T12:09:50.083Z,44.33
2022-12-15T12:12:20.024Z,46.53
2022-12-15T12:15:05.504Z,46.47
2022-12-15T12:17:38.310Z,41.93
2022-12-15T12:20:25.937Z,46.03
2022-12-15T12:23:09.092Z,43.10
2022-12-15T12:25:41.891Z,41.43
2022-12-15T12:28:35.277Z,40.53
2022-12-15T12:31:03.759Z,42.00
2022-12-15T12:33:30.491Z,41.20
2022-12-15T12:36:23.704Z,41.80
2022-12-15T12:38:53.215Z,50.27
2022-12-15T12:41:26.066Z,47.23
2022-12-15T12:43:55.912Z,49.20
2022-12-15T12:46:32.482Z,50.07
2022-12-15T12:49:06.646Z,47.50
2022-12-15T12:51:34.651Z,46.50
2022-12-15T12:54:01.796Z,46.53
2022-12-15T12:56:50.365Z,47.70
2022-12-15T12:59:29.471Z,41.47
2022-12-15T13:01:57.424Z,43.70
2022-12-15T13:04:30.286Z,46.47
2022-12-15T13:07:08.876Z,45.20
2022-12-15T13:09:38.476Z,45.70
2022-12-15T13:12:27.522Z,51.40
2022-12-15T13:14:54.933Z,68.47
2022-12-15T13:17:28.730Z,56.90
2022-12-15T13:20:01.575Z,47.60
2022-12-15T13:22:31.711Z,51.63
2022-12-15T13:24:59.354Z,47.50
2022-12-15T13:27:35.388Z,46.67
2022-12-15T13:30:13.785Z,47.53
2022-12-15T13:32:42.179Z,47.00
2022-12-15T13:35:15.553Z,46.13
2022-12-15T13:37:48.863Z,61.80
2022-12-15T13:40:35.857Z,61.77
2022-12-15T13:43:05.495Z,54.20
2022-12-15T13:45:36.911Z,56.97
2022-12-15T13:48:18.963Z,56.67
2022-12-15T13:50:51.388Z,63.27
2022-12-15T13:53:42.239Z,56.80
2022-12-15T13:56:12.143Z,61.60
2022-12-15T13:58:44.961Z,47.80
2022-12-15T14:01:32.275Z,45.40
2022-12-15T14:04:06.266Z,52.10
2022-12-15T14:06:38.504Z,51.13
2022-12-15T14:09:06.624Z,48.77
2022-12-15T14:11:52.720Z,53.73
2022-12-15T14:14:23.673Z,50.00
2022-12-15T14:16:55.238Z,50.77
2022-12-15T14:19:22.676Z,54.50
2022-12-15T14:21:53.853Z,52.23
2022-12-15T14:24:41.251Z,55.33
2022-12-15T14:27:08.349Z,55.57
2022-12-15T14:29:35.229Z,61.53
2022-12-15T14:32:02.489Z,60.80
2022-12-15T14:34:32.658Z,63.70
2022-12-15T14:37:02.421Z,64.03
2022-12-15T14:39:29.735Z,66.50
2022-12-15T14:41:57.887Z,66.60
2022-12-15T14:44:37.284Z,60.87
2022-12-15T14:47:07.212Z,57.03
2022-12-15T14:49:41.151Z,58.20
2022-12-15T14:52:17.989Z,53.80
2022-12-15T14:54:57.509Z,61.13
2022-12-15T14:57:26.694Z,58.00
2022-12-15T14:59:53.582Z,60.27
2022-12-15T15:02:28.694Z,59.23
2022-12-15T15:03:12.380Z,55.33
2022-12-15T15:04:56.489Z,50.77
2022-12-15T15:07:23.965Z,66.00
2022-12-15T15:10:01.279Z,86.05
2022-12-15T15:12:43.588Z,82.22
2022-12-15T15:15:30.104Z,82.48
2022-12-15T15:17:59.172Z,88.00
2022-12-15T15:20:28.164Z,63.57
2022-12-15T15:23:07.293Z,69.83
2022-12-15T15:25:39.261Z,98.83
2022-12-15T15:28:12.956Z,86.37
2022-12-15T15:30:49.119Z,65.63
2022-12-15T15:33:16.828Z,38.03
2022-12-15T15:35:44.520Z,53.73
2022-12-15T15:38:20.432Z,53.13
2022-12-15T15:40:54.917Z,49.90
2022-12-15T15:43:22.272Z,83.03
2022-12-15T15:45:49.750Z,110.00
2022-12-15T15:48:20.982Z,152.17
2022-12-15T15:50:47.820Z,130.93
2022-12-15T15:53:20.212Z,151.97
2022-12-15T15:55:47.948Z,173.30
2022-12-15T15:58:14.876Z,163.17
2022-12-15T16:00:41.689Z,183.63
2022-12-15T16:03:09.079Z,190.50
2022-12-15T16:05:36.342Z,182.13
2022-12-15T16:08:04.053Z,165.47
2022-12-15T16:10:30.976Z,156.27
2022-12-15T16:13:00.645Z,165.60
2022-12-15T16:15:29.538Z,151.60
2022-12-15T16:17:56.536Z,141.43
2022-12-15T16:20:25.921Z,162.23
2022-12-15T16:23:22.328Z,181.93
2022-12-15T16:25:53.156Z,170.90
2022-12-15T16:28:21.372Z,178.10
2022-12-15T16:30:48.406Z,172.10
2022-12-15T16:33:15.598Z,181.43
2022-12-15T16:35:43.423Z,194.83
2022-12-15T16:38:31.056Z,186.77
2022-12-15T16:40:58.914Z,186.47
2022-12-15T16:43:28.934Z,196.57
2022-12-15T16:46:00.427Z,191.63
2022-12-15T16:48:27.294Z,216.70
2022-12-15T16:50:55.462Z,209.37
2022-12-15T16:53:23.754Z,196.80
2022-12-15T16:56:13.483Z,191.27
2022-12-15T16:58:40.296Z,209.00
2022-12-15T17:01:07.175Z,220.47
2022-12-15T17:03:34.154Z,201.77
2022-12-15T17:06:02.294Z,206.63
2022-12-15T17:08:35.281Z,188.70
2022-12-15T17:11:02.583Z,241.37
2022-12-15T17:13:39.099Z,282.30
2022-12-15T17:16:11.484Z,252.63
2022-12-15T17:18:38.664Z,205.33
2022-12-15T17:21:07.117Z,180.10
2022-12-15T17:23:35.284Z,179.63
2022-12-15T17:26:22.685Z,165.57
2022-12-15T17:28:49.672Z,156.37
2022-12-15T17:31:21.218Z,163.47
2022-12-15T17:33:48.491Z,174.73
2022-12-15T17:36:18.441Z,163.43
2022-12-15T17:38:45.624Z,169.57
2022-12-15T17:41:34.990Z,159.30
2022-12-15T17:44:31.585Z,172.83
2022-12-15T17:46:49.420Z,239.33
2022-12-15T17:49:16.323Z,192.40
2022-12-15T17:51:44.093Z,176.23
2022-12-15T17:54:18.064Z,180.10
2022-12-15T17:56:49.377Z,186.13
2022-12-15T17:59:22.675Z,195.47
2022-12-15T18:01:49.669Z,216.63
2022-12-15T18:04:16.571Z,217.83
2022-12-15T18:06:44.243Z,202.93
2022-12-15T18:09:18.209Z,186.07
2022-12-15T18:11:47.037Z,172.50
2022-12-15T18:14:15.041Z,173.43
2022-12-15T18:16:42.213Z,155.63
2022-12-15T18:19:09.064Z,143.93
2022-12-15T18:21:36.204Z,135.63
2022-12-15T18:24:03.161Z,142.90
2022-12-15T18:26:31.600Z,142.97
2022-12-15T18:28:58.454Z,148.60
2022-12-15T18:31:26.735Z,156.47
2022-12-15T18:33:54.990Z,179.63
2022-12-15T18:36:23.882Z,339.00
2022-12-15T18:38:51.635Z,272.37
2022-12-15T18:41:19.543Z,230.83
2022-12-15T18:43:46.914Z,232.77
2022-12-15T18:46:15.090Z,228.10
2022-12-15T18:48:42.464Z,205.33
2022-12-15T18:51:16.848Z,190.60
2022-12-15T18:53:44.176Z,178.60
2022-12-15T18:56:13.389Z,197.93
2022-12-15T18:58:40.390Z,247.23
2022-12-15T19:01:07.678Z,230.87
2022-12-15T19:03:35.989Z,266.27
2022-12-15T19:06:04.254Z,236.93
2022-12-15T19:08:36.250Z,250.30
2022-12-15T19:11:19.483Z,247.27
2022-12-15T19:13:46.718Z,267.57
2022-12-15T19:16:16.443Z,278.13
2022-12-15T19:19:01.920Z,263.97
2022-12-15T19:21:44.692Z,213.03
2022-12-15T19:24:42.319Z,163.27
2022-12-15T19:27:12.942Z,164.07
2022-12-15T19:29:40.546Z,150.13
2022-12-15T19:32:07.720Z,162.60
2022-12-15T19:34:35.179Z,175.77
2022-12-15T19:37:02.651Z,183.03
2022-12-15T19:39:30.298Z,166.30
2022-12-15T19:41:57.207Z,165.00
2022-12-15T19:44:24.098Z,176.70
2022-12-15T19:46:51.009Z,131.73
2022-12-15T19:49:17.811Z,181.27
2022-12-15T19:51:44.804Z,183.67
2022-12-15T19:54:19.734Z,191.13
2022-12-15T19:56:47.598Z,203.67
2022-12-15T19:59:19.654Z,222.27
2022-12-15T20:01:46.580Z,242.37
2022-12-15T20:04:13.574Z,247.17
2022-12-15T20:06:40.692Z,257.33
2022-12-15T20:09:10.579Z,266.13
2022-12-15T20:11:38.986Z,260.47
2022-12-15T20:14:11.292Z,231.30
2022-12-15T20:16:38.327Z,219.90
2022-12-15T20:19:05.562Z,224.60
2022-12-15T20:21:34.040Z,235.67
2022-12-15T20:24:02.435Z,214.23
2022-12-15T20:26:30.431Z,188.83
2022-12-15T20:28:58.080Z,169.57
2022-12-15T20:31:25.513Z,156.67
2022-12-15T20:33:53.007Z,164.10
2022-12-15T20:36:22.291Z,274.83
2022-12-15T20:38:49.104Z,211.80
2022-12-15T20:41:18.079Z,204.40
2022-12-15T20:43:45.263Z,277.83
2022-12-15T20:46:15.942Z,192.93
2022-12-15T20:48:43.416Z,141.00
2022-12-15T20:51:14.391Z,127.97
2022-12-15T20:53:41.257Z,126.10
2022-12-15T20:56:08.428Z,157.90
2022-12-15T20:58:41.093Z,175.67
2022-12-15T21:01:16.875Z,122.00
2022-12-15T21:03:43.838Z,100.40
2022-12-15T21:06:11.005Z,121.20
2022-12-15T21:08:38.043Z,118.97
2022-12-15T21:11:24.639Z,104.27
2022-12-15T21:13:53.188Z,100.50
2022-12-15T21:16:21.703Z,97.50
2022-12-15T21:19:18.577Z,88.07
2022-12-15T21:21:37.489Z,93.27
2022-12-15T21:24:24.587Z,94.23
2022-12-15T21:26:52.256Z,92.63
2022-12-15T21:29:20.390Z,93.37
2022-12-15T21:31:47.349Z,83.10
2022-12-15T21:34:14.580Z,91.07
2022-12-15T21:36:43.047Z,92.20
2022-12-15T21:39:12.992Z,83.30
2022-12-15T21:41:41.787Z,85.23
2022-12-15T21:44:14.861Z,81.73
2022-12-15T21:46:42.154Z,74.63
2022-12-15T21:49:17.890Z,90.10
2022-12-15T21:51:50.460Z,90.20
2022-12-15T21:54:20.314Z,94.80
2022-12-15T21:56:48.596Z,94.73
2022-12-15T21:59:17.409Z,98.63
2022-12-15T22:01:44.675Z,105.27
2022-12-15T22:04:16.973Z,94.27
2022-12-15T22:06:49.966Z,85.93
2022-12-15T22:09:18.834Z,83.57
2022-12-15T22:11:46.896Z,89.70
2022-12-15T22:14:19.651Z,87.23
2022-12-15T22:16:47.028Z,82.57
2022-12-15T22:19:13.933Z,85.37
2022-12-15T22:21:43.526Z,86.20
2022-12-15T22:24:10.770Z,98.27
2022-12-15T22:26:38.364Z,87.27
2022-12-15T22:29:34.561Z,93.43
2022-12-15T22:32:01.952Z,97.50
2022-12-15T22:34:28.742Z,86.47
2022-12-15T22:36:55.669Z,94.10
2022-12-15T22:39:22.461Z,92.23
2022-12-15T22:41:50.900Z,90.07
2022-12-15T22:44:25.408Z,85.60
2022-12-15T22:46:54.020Z,98.93
2022-12-15T22:49:29.140Z,92.80
2022-12-15T22:51:56.022Z,102.27
2022-12-15T22:54:24.584Z,102.60
2022-12-15T22:56:55.004Z,105.20
2022-12-15T22:59:28.110Z,105.67
2022-12-15T23:01:55.157Z,103.40
2022-12-15T23:04:22.470Z,108.80
2022-12-15T23:06:49.531Z,107.53
2022-12-15T23:09:18.608Z,102.07
2022-12-15T23:11:45.627Z,100.47
2022-12-15T23:14:14.057Z,97.13
2022-12-15T23:16:41.248Z,101.30
2022-12-15T23:19:08.348Z,98.30
2022-12-15T23:21:36.423Z,108.60
2022-12-15T23:24:03.268Z,100.93
2022-12-15T23:26:30.156Z,95.87
2022-12-15T23:28:56.942Z,93.17
2022-12-15T23:31:23.776Z,97.47
2022-12-15T23:33:52.176Z,98.20
2022-12-15T23:36:19.897Z,99.10
2022-12-15T23:38:46.819Z,101.03
2022-12-15T23:41:17.238Z,95.00
2022-12-15T23:43:44.256Z,92.83
2022-12-15T23:46:11.277Z,90.93
2022-12-15T23:48:39.248Z,88.40
2022-12-15T23:51:07.587Z,83.17
2022-12-15T23:53:35.831Z,87.37
2022-12-15T23:56:22.513Z,86.03
2022-12-15T23:58:54.710Z,87.87
